Time;durP1;ratioP1;P1;durP2;ratioP2;P2;SDS_P1;SDS_P2;PMS_P1;PMS_P2;Temp;Humidity;BMP_temperature;BMP_pressure;BME280_temperature;BME280_humidity;BME280_pressure;Samples;Min_cycle;Max_cycle;Signal;HPM_P1;HPM_P2
2021/03/08 00:02:22;;;;;;;;;;;;;;;16.20;31.79;100442.44;4415846;32;19966;-51
2021/03/08 00:04:48;;;;;;;;;;;;;;;16.13;31.93;100435.25;4418370;32;19962;-47
2021/03/08 00:07:14;;;;;;;;;;;;;;;16.14;31.92;100437.03;4412505;32;20417;-53
2021/03/08 00:09:40;;;;;;;;;;;;;;;16.17;31.84;100439.75;4414635;32;20012;-51
2021/03/08 00:12:06;;;;;;;;;;;;;;;16.19;31.82;100434.53;4414452;32;20057;-53
2021/03/08 00:14:33;;;;;;;;;;;;;;;16.14;31.84;100442.28;4414102;32;19977;-52
2021/03/08 00:16:58;;;;;;;;;;;;;;;16.12;31.86;100438.72;4415033;32;20003;-53
2021/03/08 00:19:24;;;;;;;;;;;;;;;16.13;31.84;100440.50;4425241;32;19954;-50
2021/03/08 00:21:50;;;;;;;;;;;;;;;16.10;31.91;100440.37;4416292;32;19958;-53
2021/03/08 00:24:16;;;;;;;;;;;;;;;16.14;31.80;100437.91;4413628;32;20342;-50
2021/03/08 00:26:42;;;;;;;;;;;;;;;16.06;31.92;100434.16;4418673;32;19961;-51
2021/03/08 00:29:08;;;;;;;;;;;;;;;16.04;31.92;100434.94;4414984;32;19954;-52
2021/03/08 00:31:34;;;;;;;;;;;;;;;15.97;32.03;100442.62;4416488;32;20502;-54
2021/03/08 00:33:59;;;;;;;;;;;;;;;16.00;32.01;100440.13;4415201;32;20017;-53
2021/03/08 00:36:25;;;;;;;;;;;;;;;16.02;31.93;100435.81;4415853;32;20014;-48
2021/03/08 00:38:51;;;;;;;;;;;;;;;16.04;31.93;100440.22;4413769;32;19954;-54
2021/03/08 00:41:17;;;;;;;;;;;;;;;16.02;31.91;100438.44;4414466;32;20307;-53
2021/03/08 00:43:43;;;;;;;;;;;;;;;16.02;31.91;100438.44;4413580;32;20005;-53
2021/03/08 00:46:09;;;;;;;;;;;;;;;16.01;31.92;100441.91;4417253;32;19962;-51
2021/03/08 00:48:35;;;;;;;;;;;;;;;15.97;31.94;100442.62;4417898;32;19987;-52
2021/03/08 00:51:01;;;;;;;;;;;;;;;15.95;31.98;100439.06;4415213;32;19988;-51
2021/03/08 00:53:27;;;;;;;;;;;;;;;15.94;32.03;100425.91;4414072;32;20005;-49
2021/03/08 00:55:52;;;;;;;;;;;;;;;16.01;31.92;100431.41;4416704;32;20327;-53
2021/03/08 00:58:18;;;;;;;;;;;;;;;15.93;31.99;100443.38;4412675;32;19954;-49
2021/03/08 01:00:44;;;;;;;;;;;;;;;15.91;32.03;100429.31;4416994;32;19957;-51
2021/03/08 01:03:10;;;;;;;;;;;;;;;15.93;31.99;100427.63;4415051;32;19955;-49
2021/03/08 01:05:36;;;;;;;;;;;;;;;15.91;32.00;100424.06;4426670;32;19964;-50
2021/03/08 01:08:02;;;;;;;;;;;;;;;15.85;32.08;100426.44;4413430;32;20002;-50
2021/03/08 01:10:28;;;;;;;;;;;;;;;15.83;32.12;100422.88;4414322;32;19978;-50
2021/03/08 01:12:54;;;;;;;;;;;;;;;15.86;32.06;100421.25;4423906;32;19955;-50
2021/03/08 01:15:19;;;;;;;;;;;;;;;15.81;32.13;100427.19;4418855;32;19991;-49
2021/03/08 01:17:45;;;;;;;;;;;;;;;15.80;32.15;100425.41;4426139;32;20078;-50
2021/03/08 01:20:11;;;;;;;;;;;;;;;15.79;32.17;100423.63;4417840;32;20264;-50
2021/03/08 01:22:37;;;;;;;;;;;;;;;15.76;32.19;100419.16;4418660;32;19970;-50
2021/03/08 01:25:03;;;;;;;;;;;;;;;15.78;32.16;100421.84;4416404;32;20448;-50
2021/03/08 01:27:29;;;;;;;;;;;;;;;15.80;32.12;100425.41;4420239;32;19984;-50
2021/03/08 01:29:55;;;;;;;;;;;;;;;15.79;32.13;100423.63;4416709;32;20037;-51
2021/03/08 01:32:21;;;;;;;;;;;;;;;15.64;32.38;100414.44;4419678;32;20268;-47
2021/03/08 01:34:47;;;;;;;;;;;;;;;15.54;32.52;100417.59;4416517;32;19961;-48
2021/03/08 01:37:12;;;;;;;;;;;;;;;15.56;32.51;100423.78;4418584;32;20004;-52
2021/03/08 01:39:38;;;;;;;;;;;;;;;15.57;32.48;100412.44;4421731;32;20004;-48
2021/03/08 01:42:04;;;;;;;;;;;;;;;15.54;32.53;100413.22;4416500;32;20421;-53
2021/03/08 01:44:30;;;;;;;;;;;;;;;15.63;32.40;100417.91;4416555;32;19958;-49
2021/03/08 01:46:56;;;;;;;;;;;;;;;15.54;32.51;100407.97;4418820;32;19962;-51
2021/03/08 01:49:22;;;;;;;;;;;;;;;15.45;32.67;100407.69;4416114;32;20275;-52
2021/03/08 01:51:48;;;;;;;;;;;;;;;15.42;32.69;100413.72;4418690;32;19958;-51
2021/03/08 01:54:13;;;;;;;;;;;;;;;15.43;32.69;100415.50;4416302;32;19976;-53
2021/03/08 01:56:39;;;;;;;;;;;;;;;15.43;32.70;100417.22;4418910;32;19993;-51
2021/03/08 01:59:05;;;;;;;;;;;;;;;15.41;32.74;100417.19;4417318;32;20384;-48
2021/03/08 02:01:31;;;;;;;;;;;;;;;15.44;32.67;100417.28;4418100;32;19994;-48
2021/03/08 02:03:57;;;;;;;;;;;;;;;15.51;32.55;100412.25;4423006;32;19962;-51
2021/03/08 02:06:23;;;;;;;;;;;;;;;15.51;32.55;100410.50;4415272;32;20042;-51
2021/03/08 02:08:49;;;;;;;;;;;;;;;15.60;32.37;100404.66;4419824;32;19950;-46
2021/03/08 02:11:15;;;;;;;;;;;;;;;15.60;32.39;100399.41;4416221;32;20376;-49
2021/03/08 02:13:41;;;;;;;;;;;;;;;15.56;32.45;100408.03;4426306;32;19970;-50
2021/03/08 02:16:07;;;;;;;;;;;;;;;15.55;32.46;100403.63;4426689;32;19958;-52
2021/03/08 02:18:33;;;;;;;;;;;;;;;15.52;32.51;100403.53;4416235;32;19962;-51
2021/03/08 02:20:58;;;;;;;;;;;;;;;15.46;32.59;100399.84;4417470;32;19958;-51
2021/03/08 02:23:24;;;;;;;;;;;;;;;15.55;32.46;100396.63;4417809;32;19994;-47
2021/03/08 02:25:50;;;;;;;;;;;;;;;15.60;32.37;100392.44;4415101;32;20554;-51
2021/03/08 02:28:16;;;;;;;;;;;;;;;15.63;32.30;100394.28;4417014;32;19958;-51
2021/03/08 02:30:42;;;;;;;;;;;;;;;15.66;32.24;100394.38;4416740;32;19966;-49
2021/03/08 02:33:08;;;;;;;;;;;;;;;15.67;32.21;100379.47;4420434;32;19972;-49
2021/03/08 02:35:34;;;;;;;;;;;;;;;15.63;32.26;100391.66;4416061;32;19973;-49
2021/03/08 02:38:00;;;;;;;;;;;;;;;15.63;32.27;100388.12;4415359;32;20407;-52
2021/03/08 02:40:26;;;;;;;;;;;;;;;15.55;32.35;100388.75;4417784;32;19972;-48
2021/03/08 02:42:51;;;;;;;;;;;;;;;15.58;32.34;100387.97;4419784;32;19961;-48
2021/03/08 02:45:17;;;;;;;;;;;;;;;15.51;32.45;100383.37;4415632;32;19997;-51
2021/03/08 02:47:43;;;;;;;;;;;;;;;15.57;32.33;100392.34;4417232;32;19972;-52
2021/03/08 02:50:09;;;;;;;;;;;;;;;15.53;32.38;100385.19;4416655;32;19978;-49
2021/03/08 02:52:35;;;;;;;;;;;;;;;15.56;32.33;100381.78;4424360;32;20314;-49
2021/03/08 02:55:01;;;;;;;;;;;;;;;15.52;32.38;100387.78;4415623;32;19961;-51
2021/03/08 02:57:27;;;;;;;;;;;;;;;15.58;32.27;100386.25;4417767;32;20287;-51
2021/03/08 02:59:53;;;;;;;;;;;;;;;15.58;32.28;100387.97;4416108;32;20010;-48
2021/03/08 03:02:19;;;;;;;;;;;;;;;15.60;32.23;100386.28;4414565;32;19958;-46
2021/03/08 03:04:45;;;;;;;;;;;;;;;15.62;32.17;100384.62;4418692;32;19967;-52
2021/03/08 03:07:11;;;;;;;;;;;;;;;15.54;32.26;100379.09;4414580;32;19987;-48
2021/03/08 03:09:36;;;;;;;;;;;;;;;15.47;32.40;100379.75;4417791;32;19964;-51
2021/03/08 03:12:02;;;;;;;;;;;;;;;15.43;32.46;100386.63;4418849;32;19977;-52
2021/03/08 03:14:29;;;;;;;;;;;;;;;15.48;32.37;100386.78;4417348;32;20432;-49
2021/03/08 03:16:55;;;;;;;;;;;;;;;15.60;32.16;100381.03;4422347;32;19957;-52
2021/03/08 03:19:20;;;;;;;;;;;;;;;15.59;32.17;100387.13;4418074;32;20755;-52
2021/03/08 03:21:46;;;;;;;;;;;;;;;15.60;32.11;100379.31;4416293;32;19954;-50
2021/03/08 03:24:12;;;;;;;;;;;;;;;15.57;32.17;100387.09;4415783;32;19950;-51
2021/03/08 03:26:38;;;;;;;;;;;;;;;15.48;32.29;100386.78;4414705;32;20342;-49
2021/03/08 03:29:04;;;;;;;;;;;;;;;15.48;32.31;100380.63;4421694;32;19997;-51
2021/03/08 03:31:30;;;;;;;;;;;;;;;15.56;32.18;100379.16;4415157;32;19962;-52
2021/03/08 03:33:56;;;;;;;;;;;;;;;15.59;32.11;100377.53;4417220;32;19958;-51
2021/03/08 03:36:22;;;;;;;;;;;;;;;15.49;32.23;100380.69;4413767;32;19966;-48
2021/03/08 03:38:48;;;;;;;;;;;;;;;15.53;32.17;100379.94;4416368;32;19961;-50
2021/03/08 03:41:13;;;;;;;;;;;;;;;15.57;32.12;100380.94;4420937;32;19958;-47
2021/03/08 03:43:39;;;;;;;;;;;;;;;15.55;32.13;100386.13;4415639;32;20638;-49
2021/03/08 03:46:05;;;;;;;;;;;;;;;15.53;32.16;100381.69;4428348;32;19999;-52
2021/03/08 03:48:31;;;;;;;;;;;;;;;15.50;32.19;100386.84;4424369;32;19976;-52
2021/03/08 03:50:57;;;;;;;;;;;;;;;15.52;32.16;100385.16;4415189;32;20053;-50
2021/03/08 03:53:23;;;;;;;;;;;;;;;15.49;32.21;100391.19;4417826;32;20061;-50
2021/03/08 03:55:49;;;;;;;;;;;;;;;15.54;32.12;100388.72;4414161;32;20010;-49
2021/03/08 03:58:15;;;;;;;;;;;;;;;15.49;32.16;100393.81;4413712;32;19989;-51
2021/03/08 04:00:41;;;;;;;;;;;;;;;15.46;32.24;100393.72;4418168;32;20330;-50
2021/03/08 04:03:07;;;;;;;;;;;;;;;15.43;32.27;100386.63;4417648;32;19981;-49
2021/03/08 04:05:32;;;;;;;;;;;;;;;15.42;32.30;100392.72;4423976;32;19951;-47
2021/03/08 04:07:58;;;;;;;;;;;;;;;15.39;32.35;100397.88;4422697;32;19969;-51
2021/03/08 04:10:25;;;;;;;;;;;;;;;15.41;32.33;100396.19;4424807;32;19958;-49
2021/03/08 04:12:51;;;;;;;;;;;;;;;15.41;32.32;100401.44;4423341;32;20734;-52
2021/03/08 04:15:17;;;;;;;;;;;;;;;15.40;32.36;100404.91;4421757;32;19955;-51
2021/03/08 04:17:43;;;;;;;;;;;;;;;15.49;32.21;100406.03;4422793;32;19959;-50
2021/03/08 04:20:08;;;;;;;;;;;;;;;15.48;32.18;100412.12;4422807;32;19992;-47
2021/03/08 04:22:34;;;;;;;;;;;;;;;15.48;32.16;100402.53;4422855;32;19954;-51
2021/03/08 04:25:00;;;;;;;;;;;;;;;15.50;32.15;100402.59;4422446;32;20433;-50
2021/03/08 04:27:26;;;;;;;;;;;;;;;15.53;32.10;100405.31;4424041;32;19968;-52
2021/03/08 04:29:52;;;;;;;;;;;;;;;15.47;32.14;100400.75;4427204;32;20393;-50
2021/03/08 04:32:18;;;;;;;;;;;;;;;15.40;32.25;100410.16;4423148;32;19953;-52
2021/03/08 04:34:44;;;;;;;;;;;;;;;15.32;32.38;100417.78;4426034;32;20036;-47
2021/03/08 04:37:10;;;;;;;;;;;;;;;15.30;32.40;100413.31;4422744;32;20524;-50
2021/03/08 04:39:36;;;;;;;;;;;;;;;15.28;32.46;100415.00;4425541;32;19958;-48
2021/03/08 04:42:01;;;;;;;;;;;;;;;15.32;32.39;100416.87;4425455;32;19985;-53
2021/03/08 04:44:27;;;;;;;;;;;;;;;15.31;32.39;100402.87;4406627;32;20016;-51
2021/03/08 04:46:53;;;;;;;;;;;;;;;15.36;32.33;100413.50;4403880;32;19969;-52
2021/03/08 04:49:19;;;;;;;;;;;;;;;15.30;32.35;100413.31;4411613;32;20041;-52
2021/03/08 04:51:45;;;;;;;;;;;;;;;15.34;32.35;100423.06;4417139;32;20031;-51
2021/03/08 04:54:11;;;;;;;;;;;;;;;15.26;32.39;100416.66;4402628;32;19969;-49
2021/03/08 04:56:37;;;;;;;;;;;;;;;15.25;32.43;100417.47;4422778;32;20440;-51
2021/03/08 04:59:03;;;;;;;;;;;;;;;15.28;32.42;100420.22;4419960;32;19946;-49
2021/03/08 05:01:28;;;;;;;;;;;;;;;15.30;32.38;100429.03;4423516;32;20050;-48
2021/03/08 05:03:54;;;;;;;;;;;;;;;15.31;32.34;100425.56;4429444;32;19957;-52
2021/03/08 05:06:20;;;;;;;;;;;;;;;15.33;32.28;100429.12;4423928;32;20275;-50
2021/03/08 05:08:46;;;;;;;;;;;;;;;15.17;32.51;100426.00;4428306;32;20171;-50
2021/03/08 05:11:12;;;;;;;;;;;;;;;15.14;32.60;100432.88;4432575;32;19977;-50
2021/03/08 05:13:38;;;;;;;;;;;;;;;15.22;32.47;100430.50;4423600;32;20314;-50
2021/03/08 05:16:04;;;;;;;;;;;;;;;15.20;32.50;100426.94;4426373;32;19957;-51
2021/03/08 05:18:30;;;;;;;;;;;;;;;15.20;32.50;100432.19;4430296;32;19997;-51
2021/03/08 05:20:56;;;;;;;;;;;;;;;15.23;32.42;100433.19;4427691;32;19949;-53
2021/03/08 05:23:22;;;;;;;;;;;;;;;15.16;32.53;100437.34;4431187;32;19954;-53
2021/03/08 05:25:48;;;;;;;;;;;;;;;15.13;32.60;100431.09;4430547;32;19965;-51
2021/03/08 05:28:13;;;;;;;;;;;;;;;15.18;32.54;100438.28;4430429;32;20010;-50
2021/03/08 05:30:40;;;;;;;;;;;;;;;15.16;32.54;100436.44;4430302;32;19981;-51
2021/03/08 05:33:05;;;;;;;;;;;;;;;15.10;32.61;100431.84;4432677;32;20006;-48
2021/03/08 05:35:31;;;;;;;;;;;;;;;15.08;32.67;100436.16;4432315;32;20003;-50
2021/03/08 05:37:57;;;;;;;;;;;;;;;15.18;32.51;100440.00;4428723;32;19957;-50
2021/03/08 05:40:23;;;;;;;;;;;;;;;15.20;32.47;100459.31;4428876;32;19985;-53
2021/03/08 05:42:49;;;;;;;;;;;;;;;15.18;32.54;100445.22;4425600;32;19961;-51
2021/03/08 05:45:15;;;;;;;;;;;;;;;15.14;32.56;100449.50;4428844;32;19973;-51
2021/03/08 05:47:41;;;;;;;;;;;;;;;15.16;32.57;100452.16;4432448;32;20005;-52
2021/03/08 05:50:07;;;;;;;;;;;;;;;15.16;32.55;100457.41;4430364;32;20011;-49
2021/03/08 05:52:33;;;;;;;;;;;;;;;15.20;32.51;100454.09;4427637;32;20006;-51
2021/03/08 05:54:59;;;;;;;;;;;;;;;15.25;32.43;100463.00;4426272;32;19972;-50
2021/03/08 05:57:25;;;;;;;;;;;;;;;15.22;32.49;100459.38;4428560;32;19974;-52
2021/03/08 05:59:51;;;;;;;;;;;;;;;15.17;32.49;100454.84;4426523;32;20000;-50
2021/03/08 06:02:17;;;;;;;;;;;;;;;15.18;32.55;100466.22;4404707;32;20279;-47
2021/03/08 06:04:43;;;;;;;;;;;;;;;15.16;32.53;100460.03;4406415;32;19961;-50
2021/03/08 06:07:09;;;;;;;;;;;;;;;15.20;32.48;100461.03;4400380;32;19963;-50
2021/03/08 06:09:35;;;;;;;;;;;;;;;15.17;32.49;100465.34;4403106;32;19962;-49
2021/03/08 06:12:01;;;;;;;;;;;;;;;15.21;32.43;100466.34;4402971;32;19982;-48
2021/03/08 06:14:27;;;;;;;;;;;;;;;15.14;32.54;100460.00;4404210;32;20294;-50
2021/03/08 06:16:53;;;;;;;;;;;;;;;15.16;32.50;100466.19;4401106;32;20005;-50
2021/03/08 06:19:19;;;;;;;;;;;;;;;15.10;32.61;100473.81;4406440;32;19950;-52
2021/03/08 06:21:45;;;;;;;;;;;;;;;15.14;32.55;100465.25;4404526;32;19966;-51
2021/03/08 06:24:11;;;;;;;;;;;;;;;15.23;32.38;100467.28;4402632;32;19962;-51
2021/03/08 06:26:36;;;;;;;;;;;;;;;15.25;32.37;100464.72;4401572;32;20420;-51
2021/03/08 06:29:02;;;;;;;;;;;;;;;15.27;32.31;100468.31;4408883;32;20343;-51
2021/03/08 06:31:28;;;;;;;;;;;;;;;15.23;32.37;100469.00;4410619;32;20798;-52
2021/03/08 06:33:54;;;;;;;;;;;;;;;15.25;32.33;100462.09;4422016;32;20874;-50
2021/03/08 06:36:20;;;;;;;;;;;;;;;15.23;32.38;100464.69;4415886;32;19958;-49
2021/03/08 06:38:46;;;;;;;;;;;;;;;15.07;32.69;100467.59;4414894;32;20010;-51
2021/03/08 06:41:12;;;;;;;;;;;;;;;15.00;32.86;100474.31;4417347;32;20929;-50
2021/03/08 06:43:38;;;;;;;;;;;;;;;14.98;32.91;100478.63;4428022;32;19957;-50
2021/03/08 06:46:04;;;;;;;;;;;;;;;15.14;32.63;100486.22;4427704;32;19961;-46
2021/03/08 06:48:30;;;;;;;;;;;;;;;15.19;32.56;100486.41;4416414;32;20015;-48
2021/03/08 06:50:56;;;;;;;;;;;;;;;15.20;32.54;100485.56;4414848;32;20337;-52
2021/03/08 06:53:22;;;;;;;;;;;;;;;15.21;32.51;100486.44;4413649;32;19954;-53
2021/03/08 06:55:48;;;;;;;;;;;;;;;15.07;32.74;100488.59;4417944;32;19954;-51
2021/03/08 06:58:14;;;;;;;;;;;;;;;15.05;32.81;100499.00;4416736;32;19966;-52
2021/03/08 07:00:40;;;;;;;;;;;;;;;15.08;32.79;100496.50;4416525;32;19965;-50
2021/03/08 07:03:05;;;;;;;;;;;;;;;15.04;32.84;100494.59;4415012;32;20000;-50
2021/03/08 07:05:31;;;;;;;;;;;;;;;15.12;32.76;100503.62;4414857;32;20340;-52
2021/03/08 07:07:58;;;;;;;;;;;;;;;15.25;32.56;100506.69;4416695;32;19960;-49
2021/03/08 07:10:24;;;;;;;;;;;;;;;15.20;32.62;100496.06;4414733;32;20053;-49
2021/03/08 07:12:52;;;;;;;;;;;;;;;15.20;32.61;100500.41;4415620;32;20439;-51
2021/03/08 07:15:18;;;;;;;;;;;;;;;15.14;32.72;100501.97;4414011;32;20018;-52
2021/03/08 07:17:43;;;;;;;;;;;;;;;15.13;32.74;100502.81;4416749;32;19990;-52
2021/03/08 07:20:09;;;;;;;;;;;;;;;15.15;32.72;100508.09;4417867;32;19954;-52
2021/03/08 07:22:35;;;;;;;;;;;;;;;15.32;32.51;100509.59;4416940;32;20053;-49
2021/03/08 07:25:01;;;;;;;;;;;;;;;15.35;32.46;100514.06;4422698;32;19996;-49
2021/03/08 07:27:27;;;;;;;;;;;;;;;15.25;32.60;100514.56;4417594;32;19986;-51
2021/03/08 07:29:53;;;;;;;;;;;;;;;15.36;32.48;100513.22;4414111;32;19954;-46
2021/03/08 07:32:19;;;;;;;;;;;;;;;15.27;32.57;100511.16;4415160;32;19962;-51
2021/03/08 07:34:45;;;;;;;;;;;;;;;15.23;32.67;100518.87;4418145;32;19987;-50
2021/03/08 07:37:11;;;;;;;;;;;;;;;15.23;32.69;100521.47;4416047;32;19958;-49
2021/03/08 07:39:37;;;;;;;;;;;;;;;15.31;32.58;100525.28;4421220;32;20008;-49
2021/03/08 07:42:07;;;;;;;;;;;;;;;15.29;32.61;100519.97;4415720;32;20357;-50
2021/03/08 07:44:33;;;;;;;;;;;;;;;15.24;32.72;100515.41;4421685;32;20294;-50
2021/03/08 07:46:59;;;;;;;;;;;;;;;15.20;32.80;100524.00;4414583;32;19966;-50
2021/03/08 07:49:25;;;;;;;;;;;;;;;15.31;32.65;100526.19;4423280;32;20298;-47
2021/03/08 07:51:52;;;;;;;;;;;;;;;15.34;32.58;100524.50;4416720;32;20056;-51
2021/03/08 07:54:18;;;;;;;;;;;;;;;15.29;32.69;100527.84;4421447;32;19953;-53
2021/03/08 07:56:44;;;;;;;;;;;;;;;15.35;32.59;100526.28;4414936;32;19961;-48
2021/03/08 07:59:10;;;;;;;;;;;;;;;15.29;32.73;100534.84;4422871;32;19981;-47
2021/03/08 08:01:36;;;;;;;;;;;;;;;15.25;32.76;100530.28;4412373;32;20053;-54
2021/03/08 08:04:02;;;;;;;;;;;;;;;15.30;32.72;100528.75;4420567;32;19984;-51
2021/03/08 08:06:28;;;;;;;;;;;;;;;15.32;32.70;100532.31;4419172;32;20596;-52
2021/03/08 08:08:54;;;;;;;;;;;;;;;15.32;32.71;100533.22;4416146;32;20014;-49
2021/03/08 08:11:20;;;;;;;;;;;;;;;15.31;32.73;100535.78;4412423;32;19950;-51
2021/03/08 08:13:46;;;;;;;;;;;;;;;15.34;32.70;100533.25;4415354;32;20361;-52
2021/03/08 08:16:12;;;;;;;;;;;;;;;15.39;32.64;100536.97;4417320;32;19981;-52
2021/03/08 08:18:38;;;;;;;;;;;;;;;15.35;32.72;100536.78;4416228;32;21017;-48
2021/03/08 08:21:04;;;;;;;;;;;;;;;15.32;32.77;100538.47;4416633;32;20020;-51
2021/03/08 08:23:30;;;;;;;;;;;;;;;15.34;32.75;100535.87;4416173;32;20003;-51
2021/03/08 08:25:56;;;;;;;;;;;;;;;15.35;32.78;100537.66;4414372;32;19998;-50
2021/03/08 08:28:22;;;;;;;;;;;;;;;15.40;32.70;100541.38;4416039;32;19961;-49
2021/03/08 08:30:48;;;;;;;;;;;;;;;15.35;32.79;100536.78;4418406;32;20038;-49
2021/03/08 08:33:14;;;;;;;;;;;;;;;15.38;32.77;100532.56;4407906;32;19966;-53
2021/03/08 08:35:40;;;;;;;;;;;;;;;15.46;32.64;100536.31;4412480;32;19958;-52
2021/03/08 08:38:06;;;;;;;;;;;;;;;15.41;32.74;100530.03;4411356;32;19993;-52
2021/03/08 08:40:32;;;;;;;;;;;;;;;15.44;32.73;100532.75;4414445;32;20012;-51
2021/03/08 08:42:58;;;;;;;;;;;;;;;15.51;32.65;100538.22;4421054;32;19954;-49
2021/03/08 08:45:24;;;;;;;;;;;;;;;15.58;32.54;100535.87;4427617;32;19983;-51
2021/03/08 08:47:50;;;;;;;;;;;;;;;15.53;32.64;100537.44;4426040;32;20017;-53
2021/03/08 08:50:16;;;;;;;;;;;;;;;15.56;32.60;100536.66;4413993;32;19969;-52
2021/03/08 08:52:42;;;;;;;;;;;;;;;15.60;32.53;100533.28;4417064;32;20013;-52
2021/03/08 08:55:08;;;;;;;;;;;;;;;15.62;32.52;100535.97;4413635;32;19954;-52
2021/03/08 08:57:33;;;;;;;;;;;;;;;15.60;32.55;100530.66;4412628;32;19950;-53
2021/03/08 09:00:06;;;;;;;;;;;;;;;15.63;32.53;100533.41;4418605;32;19964;-47
2021/03/08 09:02:32;;;;;;;;;;;;;;;15.66;32.53;100533.50;4427777;32;19981;-51
2021/03/08 09:04:59;;;;;;;;;;;;;;;15.67;32.53;100531.75;4421067;32;19958;-52
2021/03/08 09:07:25;;;;;;;;;;;;;;;15.76;32.44;100525.94;4419352;32;19978;-53
2021/03/08 09:09:51;;;;;;;;;;;;;;;15.77;32.43;100525.97;4422246;32;19999;-50
2021/03/08 09:12:17;;;;;;;;;;;;;;;15.77;32.43;100530.34;4421635;32;20048;-48
2021/03/08 09:14:52;;;;;;;;;;;;;;;15.77;32.41;100520.72;4422097;32;19980;-53
2021/03/08 09:17:18;;;;;;;;;;;;;;;15.82;32.38;100528.78;4423684;32;19976;-52
2021/03/08 09:19:44;;;;;;;;;;;;;;;15.89;32.31;100530.78;4421415;32;19962;-49
2021/03/08 09:22:10;;;;;;;;;;;;;;;15.86;32.36;100526.31;4425554;32;19957;-51
2021/03/08 09:24:36;;;;;;;;;;;;;;;15.88;32.39;100529.00;4426520;32;20017;-51
2021/03/08 09:27:03;;;;;;;;;;;;;;;15.91;32.31;100529.13;4424083;32;19997;-52
2021/03/08 09:29:29;;;;;;;;;;;;;;;15.96;32.29;100529.28;4412682;32;19973;-47
2021/03/08 09:31:55;;;;;;;;;;;;;;;15.95;32.28;100531.00;4411487;32;19966;-50
2021/03/08 09:34:21;;;;;;;;;;;;;;;16.04;32.23;100542.66;4414441;32;19969;-50
2021/03/08 09:36:47;;;;;;;;;;;;;;;16.06;32.20;100528.75;4411673;32;19966;-49
2021/03/08 09:39:13;;;;;;;;;;;;;;;16.08;32.16;100529.69;4402101;32;19962;-51
2021/03/08 09:41:39;;;;;;;;;;;;;;;16.11;32.11;100532.41;4402329;32;19962;-50
2021/03/08 09:44:04;;;;;;;;;;;;;;;16.09;32.34;100525.28;4401532;32;19953;-51
2021/03/08 09:46:30;;;;;;;;;;;;;;;16.06;32.33;100517.31;4403607;32;19976;-50
2021/03/08 09:48:56;;;;;;;;;;;;;;;16.13;32.25;100524.56;4416400;32;20373;-50
2021/03/08 09:51:22;;;;;;;;;;;;;;;16.17;32.18;100523.81;4415067;32;21442;-48
2021/03/08 09:53:48;;;;;;;;;;;;;;;16.17;32.16;100526.44;4414870;32;19988;-48
2021/03/08 09:56:14;;;;;;;;;;;;;;;16.15;32.33;100522.88;4412344;32;19981;-52
2021/03/08 09:58:40;;;;;;;;;;;;;;;16.23;32.23;100526.62;4414461;32;19953;-50
2021/03/08 10:01:06;;;;;;;;;;;;;;;16.15;32.34;100517.63;4421497;32;19957;-52
2021/03/08 10:03:32;;;;;;;;;;;;;;;16.16;32.35;100511.53;4429788;32;20008;-52
2021/03/08 10:05:58;;;;;;;;;;;;;;;16.19;32.36;100514.25;4418526;32;20306;-49
2021/03/08 10:08:24;;;;;;;;;;;;;;;16.25;32.23;100519.72;4413346;32;19946;-51
2021/03/08 10:10:49;;;;;;;;;;;;;;;16.24;32.24;100517.94;4416082;32;19976;-49
2021/03/08 10:13:15;;;;;;;;;;;;;;;16.29;32.16;100513.69;4412366;32;20004;-51
2021/03/08 10:15:41;;;;;;;;;;;;;;;16.33;32.20;100519.03;4423176;32;20286;-48
2021/03/08 10:18:07;;;;;;;;;;;;;;;16.33;32.30;100522.59;4429910;32;20607;-45
2021/03/08 10:20:33;;;;;;;;;;;;;;;16.37;32.34;100526.19;4425892;32;19984;-51
2021/03/08 10:22:59;;;;;;;;;;;;;;;16.32;32.44;100530.41;4425315;32;20302;-50
2021/03/08 10:25:25;;;;;;;;;;;;;;;16.30;32.49;100530.38;4425851;32;20709;-51
2021/03/08 10:27:51;;;;;;;;;;;;;;;16.29;32.58;100529.47;4427378;32;20307;-51
2021/03/08 10:30:17;;;;;;;;;;;;;;;16.36;32.53;100529.66;4429022;32;19976;-52
2021/03/08 10:32:43;;;;;;;;;;;;;;;16.37;32.54;100528.84;4423459;32;19962;-52
2021/03/08 10:35:09;;;;;;;;;;;;;;;16.36;32.61;100527.00;4424747;32;19959;-49
2021/03/08 10:37:35;;;;;;;;;;;;;;;16.35;32.70;100519.97;4425323;32;19958;-49
2021/03/08 10:40:00;;;;;;;;;;;;;;;16.39;32.63;100519.25;4427706;32;20303;-51
2021/03/08 10:42:26;;;;;;;;;;;;;;;16.45;32.49;100514.16;4428073;32;19977;-49
2021/03/08 10:44:52;;;;;;;;;;;;;;;16.50;32.48;100516.94;4427838;32;20350;-51
2021/03/08 10:47:19;;;;;;;;;;;;;;;16.50;32.40;100515.22;4424454;32;20005;-49
2021/03/08 10:49:45;;;;;;;;;;;;;;;16.53;32.35;100515.31;4428941;32;19957;-51
2021/03/08 10:52:11;;;;;;;;;;;;;;;16.55;32.35;100513.59;4424039;32;20002;-52
2021/03/08 10:54:38;;;;;;;;;;;;;;;16.55;32.35;100518.00;4429670;32;19962;-51
2021/03/08 10:57:04;;;;;;;;;;;;;;;16.58;32.21;100513.69;4423398;32;20016;-47
2021/03/08 10:59:30;;;;;;;;;;;;;;;16.65;32.16;100519.16;4429611;32;19970;-51
2021/03/08 11:01:57;;;;;;;;;;;;;;;16.68;32.00;100512.25;4428355;32;19985;-51
2021/03/08 11:04:23;;;;;;;;;;;;;;;16.71;32.00;100508.81;4420723;32;21956;-51
2021/03/08 11:06:49;;;;;;;;;;;;;;;16.75;31.99;100505.44;4421055;32;20003;-52
2021/03/08 11:09:15;;;;;;;;;;;;;;;16.78;31.89;100516.03;4411311;32;20364;-50
2021/03/08 11:11:41;;;;;;;;;;;;;;;16.80;31.75;100502.94;4404400;32;19996;-50
2021/03/08 11:14:07;;;;;;;;;;;;;;;16.79;31.84;100511.66;4409653;32;19950;-48
2021/03/08 11:16:33;;;;;;;;;;;;;;;16.77;31.75;100503.75;4422282;32;19962;-52
2021/03/08 11:18:59;;;;;;;;;;;;;;;16.79;31.77;100509.94;4416527;32;20018;-50
2021/03/08 11:21:25;;;;;;;;;;;;;;;16.83;31.76;100503.91;4410553;32;20348;-50
2021/03/08 11:23:51;;;;;;;;;;;;;;;16.85;31.69;100504.87;4411171;32;19946;-54
2021/03/08 11:26:16;;;;;;;;;;;;;;;16.87;31.72;100502.25;4419146;32;19957;-52
2021/03/08 11:28:42;;;;;;;;;;;;;;;16.90;31.65;100501.47;4416825;32;20334;-50
2021/03/08 11:31:08;;;;;;;;;;;;;;;16.93;31.59;100504.19;4411767;32;19949;-51
2021/03/08 11:33:34;;;;;;;;;;;;;;;16.93;31.61;100496.28;4413423;32;19973;-50
2021/03/08 11:36:00;;;;;;;;;;;;;;;16.93;31.57;100496.28;4413218;32;19988;-50
2021/03/08 11:38:26;;;;;;;;;;;;;;;16.99;31.45;100499.09;4413221;32;19954;-50
2021/03/08 11:40:53;;;;;;;;;;;;;;;17.00;31.46;100490.41;4414122;32;19989;-47
2021/03/08 11:43:19;;;;;;;;;;;;;;;17.02;31.42;100487.78;4413374;32;19992;-51
2021/03/08 11:45:45;;;;;;;;;;;;;;;17.03;31.45;100481.66;4414034;32;19954;-50
2021/03/08 11:48:11;;;;;;;;;;;;;;;17.02;31.44;100488.69;4413452;32;19977;-49
2021/03/08 11:50:36;;;;;;;;;;;;;;;17.01;31.44;100486.91;4414579;32;20475;-50
2021/03/08 11:53:02;;;;;;;;;;;;;;;16.98;31.60;100477.16;4417464;32;20315;-52
2021/03/08 11:55:28;;;;;;;;;;;;;;;17.02;31.38;100478.16;4414073;32;20005;-51
2021/03/08 11:57:54;;;;;;;;;;;;;;;17.00;31.50;100478.13;4398343;32;19973;-50
2021/03/08 12:00:20;;;;;;;;;;;;;;;16.99;31.54;100478.06;4398691;32;19985;-53
2021/03/08 12:02:46;;;;;;;;;;;;;;;17.03;31.55;100476.41;4401999;32;20347;-50
2021/03/08 12:05:12;;;;;;;;;;;;;;;16.98;31.55;100471.00;4409368;32;19966;-47
2021/03/08 12:07:38;;;;;;;;;;;;;;;16.93;31.62;100467.34;4413206;32;20021;-48
2021/03/08 12:10:04;;;;;;;;;;;;;;;16.93;31.59;100469.97;4413186;32;19953;-49
2021/03/08 12:12:30;;;;;;;;;;;;;;;16.90;31.66;100472.53;4413589;32;20949;-51
2021/03/08 12:14:56;;;;;;;;;;;;;;;16.84;31.75;100463.59;4414025;32;20394;-48
2021/03/08 12:17:22;;;;;;;;;;;;;;;16.91;31.65;100464.66;4413049;32;19954;-50
2021/03/08 12:19:48;;;;;;;;;;;;;;;16.85;31.97;100460.16;4416448;32;20386;-50
2021/03/08 12:22:14;;;;;;;;;;;;;;;16.90;31.76;100462.88;4410970;32;19993;-53
2021/03/08 12:24:39;;;;;;;;;;;;;;;16.89;31.73;100454.97;4411569;32;20451;-46
2021/03/08 12:27:05;;;;;;;;;;;;;;;16.88;32.02;100459.31;4409492;32;20000;-51
2021/03/08 12:29:31;;;;;;;;;;;;;;;16.86;31.89;100459.31;4412522;32;19966;-49